.
WxDataArchive / Data Records for 2010-09-23
2010-09-22 September 2010 2010-09-24

Data Records for Thursday, 23 September 2010

Time	Temp	Chill	HIndex	Humid	Dewpt	 Wind 	HiWind	WindDir	Rain 	Barom 
-----	----	-----	------	-----	-----	------	------	-------	-----	----- 
00:00	64.7	64.7	64.7	92	62.3	0	0	---	0.00	30.077 
00:05	64.5	64.5	64.5	92	62.1	0	0	---	0.00	30.077 
00:10	64.5	64.5	64.5	92	62.1	0	0	---	0.00	30.077 
00:15	64.3	64.3	64.3	93	62.2	0	0	---	0.00	30.075 
00:20	64.2	64.2	64.2	93	62.1	0	0	---	0.00	30.075 
00:25	64.0	64.0	64.0	93	61.9	0	0	---	0.00	30.075 
00:30	63.9	63.9	63.9	93	61.8	0	0	---	0.00	30.074 
00:35	63.7	63.7	63.7	93	61.6	0	0	---	0.00	30.074 
00:40	63.7	63.7	63.7	93	61.6	0	0	---	0.00	30.074 
00:45	63.5	63.5	63.5	93	61.4	0	0	---	0.00	30.076 
00:50	63.4	63.4	63.4	93	61.3	0	0	---	0.00	30.076 
00:55	63.2	63.2	63.2	93	61.1	0	0	---	0.00	30.076 
01:00	63.2	63.2	63.2	93	61.1	0	0	---	0.00	30.072 
01:05	63.1	63.1	63.1	93	61.0	0	0	---	0.00	30.072 
01:10	62.9	62.9	62.9	94	61.1	0	0	---	0.00	30.072 
01:15	62.7	62.7	62.7	94	60.9	0	0	---	0.00	30.081 
01:20	62.7	62.7	62.7	94	60.9	0	0	---	0.00	30.081 
01:25	62.6	62.6	62.6	94	60.8	0	0	---	0.00	30.081 
01:30	62.4	62.4	62.4	94	60.6	0	0	---	0.00	30.080 
01:35	62.4	62.4	62.4	94	60.6	0	0	---	0.00	30.080 
01:40	62.3	62.3	62.3	94	60.5	0	0	---	0.00	30.080 
01:45	62.1	62.1	62.1	94	60.3	0	0	---	0.00	30.089 
01:50	62.1	62.1	62.1	94	60.3	0	0	---	0.00	30.089 
01:55	62.0	62.0	62.0	94	60.2	0	0	---	0.00	30.089 
02:00	62.0	62.0	62.0	94	60.2	0	0	---	0.00	30.086 
02:05	61.8	61.8	61.8	94	60.1	0	0	---	0.00	30.086 
02:10	61.6	61.6	61.6	94	59.9	0	0	---	0.00	30.086 
02:15	61.6	61.6	61.6	94	59.9	0	0	---	0.00	30.083 
02:20	61.5	61.5	61.5	94	59.8	0	0	---	0.00	30.083 
02:25	61.5	61.5	61.5	95	60.1	0	0	---	0.00	30.083 
02:30	61.5	61.5	61.5	95	60.1	0	0	---	0.00	30.088 
02:35	61.5	61.5	61.5	95	60.1	0	0	---	0.00	30.088 
02:40	61.5	61.5	61.5	95	60.1	0	1	270	0.00	30.088 
02:45	61.5	61.5	61.5	95	60.1	0	0	---	0.00	30.094 
02:50	61.3	61.3	61.3	95	59.9	0	0	---	0.00	30.094 
02:55	61.2	61.2	61.2	95	59.8	0	0	---	0.00	30.094 
03:00	61.2	61.2	61.2	95	59.8	0	0	---	0.00	30.094 
03:05	61.2	61.2	61.2	95	59.8	0	0	---	0.00	30.094 
03:10	61.0	61.0	61.0	95	59.6	0	0	---	0.00	30.094 
03:15	61.0	61.0	61.0	95	59.6	0	0	---	0.00	30.090 
03:20	60.9	60.9	60.9	95	59.5	0	0	---	0.00	30.090 
03:25	60.9	60.9	60.9	95	59.5	0	0	---	0.00	30.090 
03:30	60.9	60.9	60.9	95	59.5	0	0	---	0.00	30.091 
03:35	60.9	60.9	60.9	95	59.5	0	0	---	0.00	30.091 
03:40	60.9	60.9	60.9	95	59.5	0	0	---	0.00	30.091 
03:45	60.9	60.9	60.9	95	59.5	0	0	---	0.00	30.092 
03:50	60.9	60.9	60.9	95	59.5	0	0	---	0.00	30.092 
03:55	60.9	60.9	60.9	96	59.7	0	0	---	0.00	30.092 
04:00	61.0	61.0	61.0	96	59.8	0	0	---	0.00	30.089 
04:05	61.2	61.2	61.2	96	60.0	0	0	---	0.00	30.089 
04:10	61.0	61.0	61.0	96	59.8	0	0	---	0.00	30.089 
04:15	61.0	61.0	61.0	96	59.8	0	0	---	0.00	30.094 
04:20	61.0	61.0	61.0	96	59.8	0	0	---	0.00	30.094 
04:25	60.9	60.9	60.9	96	59.7	0	0	---	0.00	30.094 
04:30	60.9	60.9	60.9	96	59.7	0	0	---	0.00	30.083 
04:35	60.7	60.7	60.7	96	59.6	0	0	---	0.00	30.083 
04:40	60.7	60.7	60.7	96	59.6	0	0	---	0.00	30.083 
04:45	60.5	60.5	60.5	96	59.4	0	0	---	0.00	30.083 
04:50	60.5	60.5	60.5	96	59.4	0	0	---	0.00	30.083 
04:55	60.4	60.4	60.4	96	59.3	0	0	---	0.00	30.083 
05:00	60.4	60.4	60.4	96	59.3	0	0	---	0.00	30.086 
05:05	60.2	60.2	60.2	96	59.1	0	0	---	0.00	30.086 
05:10	60.2	60.2	60.2	96	59.1	0	0	---	0.00	30.086 
05:15	60.2	60.2	60.2	96	59.1	0	0	---	0.00	30.082 
05:20	60.1	60.1	60.1	96	59.0	0	0	---	0.00	30.082 
05:25	60.1	60.1	60.1	96	59.0	0	0	---	0.00	30.082 
05:30	60.1	60.1	60.1	96	59.0	0	0	---	0.00	30.080 
05:35	59.9	59.9	59.9	96	58.8	0	0	---	0.00	30.080 
05:40	59.9	59.9	59.9	96	58.8	0	0	---	0.00	30.080 
05:45	59.8	59.8	59.8	96	58.7	0	0	---	0.00	30.080 
05:50	59.9	59.9	59.9	96	58.8	0	0	---	0.00	30.080 
05:55	59.9	59.9	59.9	96	58.8	0	0	---	0.00	30.080 
06:00	59.9	59.9	59.9	96	58.8	0	0	---	0.00	30.083 
06:05	59.9	59.9	59.9	96	58.8	0	0	---	0.00	30.083 
06:10	60.4	60.4	60.4	96	59.3	0	0	---	0.00	30.083 
06:15	60.9	60.9	60.9	96	59.7	0	0	---	0.00	30.085 
06:20	61.0	61.0	61.0	96	59.8	0	0	---	0.00	30.085 
06:25	61.2	61.2	61.2	96	60.0	0	0	---	0.00	30.085 
06:30	61.2	61.2	61.2	96	60.0	0	0	---	0.00	30.085 
06:35	61.3	61.3	61.3	96	60.1	0	0	---	0.00	30.085 
06:40	61.3	61.3	61.3	96	60.1	0	0	---	0.00	30.085 
06:45	61.2	61.2	61.2	96	60.0	0	0	---	0.00	30.081 
06:50	61.2	61.2	61.2	96	60.0	0	0	---	0.00	30.081 
06:55	61.0	61.0	61.0	96	59.8	0	0	---	0.00	30.081 
07:00	60.9	60.9	60.9	96	59.7	0	0	---	0.00	30.082 
07:05	60.9	60.9	60.9	96	59.7	0	1	270	0.00	30.082 
07:10	60.9	60.9	60.9	96	59.7	0	0	---	0.00	30.082 
07:15	60.9	60.9	60.9	96	59.7	0	0	---	0.00	30.083 
07:20	60.9	60.9	60.9	96	59.7	0	0	---	0.00	30.083 
07:25	60.9	60.9	60.9	96	59.7	0	0	---	0.00	30.083 
07:30	61.0	61.0	61.0	96	59.8	0	0	---	0.00	30.084 
07:35	61.0	61.0	61.0	96	59.8	0	0	---	0.00	30.084 
07:40	61.2	61.2	61.2	96	60.0	0	0	---	0.00	30.084 
07:45	61.2	61.2	61.2	96	60.0	0	0	---	0.00	30.089 
07:50	61.3	61.3	61.3	96	60.1	0	0	---	0.00	30.089 
07:55	61.3	61.3	61.3	97	60.4	0	0	---	0.00	30.089 
08:00	61.6	61.6	61.6	97	60.7	0	0	---	0.00	30.089 
08:05	61.8	61.8	61.8	97	60.9	0	0	---	0.00	30.089 
08:10	62.0	62.0	62.0	97	61.1	0	0	---	0.00	30.089 
08:15	62.0	62.0	62.0	97	61.1	0	0	---	0.00	30.090 
08:20	62.3	62.3	62.3	97	61.4	0	0	---	0.00	30.090 
08:25	62.4	62.4	62.4	97	61.5	0	0	---	0.00	30.090 
08:30	62.6	62.6	62.6	97	61.7	0	0	---	0.00	30.088 
08:35	62.9	62.9	62.9	97	62.0	0	0	---	0.00	30.088 
08:40	63.4	63.4	63.4	97	62.5	0	0	---	0.00	30.088 
08:45	63.9	63.9	63.9	97	63.0	0	0	---	0.00	30.087 
08:50	64.0	64.0	64.0	97	63.1	0	0	---	0.00	30.087 
08:55	64.2	64.2	64.2	97	63.3	0	0	---	0.00	30.087 
09:00	64.3	64.3	64.3	97	63.4	0	1	270	0.00	30.083 
09:05	64.7	64.7	64.7	97	63.8	0	1	270	0.00	30.083 
09:10	65.2	65.2	65.2	97	64.3	0	1	270	0.00	30.083 
09:15	65.6	65.6	65.6	97	64.7	0	1	135	0.00	30.077 
09:20	66.0	66.0	66.0	97	65.1	0	1	135	0.00	30.077 
09:25	66.4	66.4	66.4	97	65.5	0	1	135	0.00	30.077 
09:30	66.9	66.9	66.9	97	66.0	0	2	270	0.00	30.079 
09:35	67.3	67.3	67.3	97	66.4	0	1	270	0.00	30.079 
09:40	67.3	67.3	67.3	97	66.4	0	3	270	0.00	30.079 
09:45	67.4	67.4	67.4	96	66.2	0	2	315	0.00	30.071 
09:50	67.8	67.8	67.8	96	66.6	0	3	112	0.00	30.071 
09:55	68.3	68.3	68.3	96	67.1	0	3	248	0.00	30.071 
10:00	68.8	68.8	68.8	95	67.3	0	2	248	0.00	30.069 
10:05	69.3	69.3	69.3	94	67.5	0	2	248	0.00	30.069 
10:10	69.9	69.9	69.9	92	67.5	0	1	248	0.00	30.069 
10:15	70.4	70.4	70.4	88	66.7	1	5	248	0.00	30.067 
10:20	71.3	71.3	71.3	86	66.9	1	3	270	0.00	30.067 
10:25	72.0	72.0	72.0	82	66.2	1	4	248	0.00	30.067 
10:30	72.8	72.8	72.8	81	66.6	0	3	248	0.00	30.066 
10:35	73.7	73.7	73.7	79	66.8	0	3	248	0.00	30.066 
10:40	74.7	74.7	74.7	76	66.6	0	3	248	0.00	30.066 
10:45	75.8	75.8	77.3	72	66.1	1	3	248	0.00	30.062 
10:50	77.0	77.0	78.8	69	66.0	1	3	292	0.00	30.062 
10:55	77.7	77.7	79.6	69	66.7	1	5	248	0.00	30.062 
11:00	78.1	78.1	80.0	67	66.2	1	4	248	0.00	30.060 
11:05	78.3	78.3	80.2	65	65.5	1	3	292	0.00	30.060 
11:10	78.3	78.3	80.2	65	65.5	2	4	270	0.00	30.060 
11:15	78.8	78.8	80.8	65	66.0	0	2	270	0.00	30.056 
11:20	79.6	79.6	81.6	63	65.9	0	3	270	0.00	30.056 
11:25	80.3	80.3	82.4	62	66.1	1	3	248	0.00	30.056 
11:30	81.1	81.1	83.2	60	65.9	1	5	270	0.00	30.052 
11:35	81.8	81.8	83.8	58	65.6	2	4	248	0.00	30.052 
11:40	82.4	82.4	84.6	58	66.1	1	4	270	0.00	30.052 
11:45	82.6	82.6	84.1	54	64.2	2	7	270	0.00	30.045 
11:50	82.4	82.4	83.9	54	64.1	2	5	292	0.00	30.045 
11:55	82.6	82.6	84.0	53	63.7	2	5	248	0.00	30.045 
12:00	83.6	83.6	85.0	52	64.1	1	3	292	0.00	30.041 
12:05	84.5	84.5	86.0	51	64.4	1	5	270	0.00	30.041 
12:10	85.3	85.3	86.9	50	64.5	2	6	270	0.00	30.041 
12:15	85.5	85.5	85.9	45	61.7	2	7	270	0.00	30.037 
12:20	85.3	85.3	85.9	46	62.1	2	5	270	0.00	30.037 
12:25	85.1	85.1	85.7	46	62.0	2	6	248	0.00	30.037 
12:30	85.1	85.1	85.7	46	62.0	1	5	248	0.00	30.027 
12:35	86.1	86.1	87.0	46	62.9	1	4	292	0.00	30.027 
12:40	87.2	87.2	87.9	44	62.6	2	5	315	0.00	30.027 
12:45	87.8	87.8	88.2	42	61.8	1	4	248	0.00	30.022 
12:50	87.8	87.8	87.9	41	61.1	2	10	248	0.00	30.022 
12:55	88.4	88.4	88.7	41	61.7	1	3	270	0.00	30.022 
13:00	88.8	88.8	88.7	39	60.6	2	5	270	0.00	30.011 
13:05	88.8	88.8	88.4	38	59.9	2	6	270	0.00	30.011 
13:10	88.6	88.6	88.4	39	60.4	2	6	248	0.00	30.011 
13:15	88.8	88.8	88.7	39	60.6	3	10	292	0.00	30.010 
13:20	89.3	89.3	88.8	37	59.6	2	10	270	0.00	30.010 
13:25	89.5	89.5	88.8	36	59.0	4	9	270	0.00	30.010 
13:30	89.3	89.3	88.3	35	58.0	3	6	270	0.00	30.006 
13:35	89.3	89.3	88.3	35	58.0	2	5	270	0.00	30.006 
13:40	89.5	89.5	88.5	35	58.2	4	9	270	0.00	30.006 
13:45	89.7	89.7	89.0	36	59.2	3	7	292	0.00	30.000 
13:50	89.9	89.9	89.0	35	58.5	2	5	270	0.00	30.000 
13:55	90.1	90.1	89.3	35	58.7	2	6	270	0.00	30.000 
14:00	90.3	90.3	89.8	36	59.7	2	5	270	0.00	29.994 
14:05	90.5	90.5	89.8	35	59.1	3	6	270	0.00	29.994 
14:10	91.0	91.0	89.9	33	57.9	3	8	248	0.00	29.994 
14:15	90.7	90.7	90.1	35	59.2	3	10	248	0.00	29.992 
14:20	91.0	91.0	90.2	34	58.7	3	7	270	0.00	29.992 
14:25	90.7	90.7	89.8	34	58.4	3	7	270	0.00	29.992 
14:30	90.7	90.7	89.5	33	57.6	2	9	270	0.00	29.981 
14:35	90.7	90.7	89.8	34	58.4	3	8	270	0.00	29.981 
14:40	90.5	90.5	89.5	34	58.3	3	6	248	0.00	29.981 
14:45	90.1	90.1	89.0	34	57.9	2	5	270	0.00	29.979 
14:50	89.9	89.9	88.8	34	57.7	3	10	248	0.00	29.979 
14:55	89.9	89.9	89.0	35	58.5	4	7	270	0.00	29.979 
15:00	90.5	90.5	89.5	34	58.3	2	6	270	0.00	29.976 
15:05	90.7	90.7	89.8	34	58.4	2	7	248	0.00	29.976 
15:10	90.5	90.5	89.3	33	57.4	3	6	248	0.00	29.976 
15:15	90.3	90.3	89.6	35	58.9	2	6	270	0.00	29.972 
15:20	90.3	90.3	89.3	34	58.1	4	10	270	0.00	29.972 
15:25	90.3	90.3	89.3	34	58.1	3	6	270	0.00	29.972 
15:30	90.3	90.3	89.3	34	58.1	2	5	248	0.00	29.966 
15:35	90.1	90.1	88.8	33	57.1	2	5	270	0.00	29.966 
15:40	90.1	90.1	89.0	34	57.9	2	4	248	0.00	29.966 
15:45	89.9	89.9	88.5	33	56.9	3	5	270	0.00	29.964 
15:50	89.7	89.7	88.5	34	57.6	3	6	270	0.00	29.964 
15:55	90.3	90.3	89.0	33	57.2	2	6	270	0.00	29.964 
16:00	91.0	91.0	89.6	32	57.0	3	7	270	0.00	29.957 
16:05	91.4	91.4	90.1	32	57.3	2	5	248	0.00	29.957 
16:10	91.8	91.8	90.4	31	56.8	1	5	270	0.00	29.957 
16:15	92.1	92.1	90.5	30	56.2	2	4	292	0.00	29.948 
16:20	91.6	91.6	89.6	29	54.8	3	7	270	0.00	29.948 
16:25	91.2	91.2	89.1	29	54.5	2	5	270	0.00	29.948 
16:30	90.7	90.7	88.7	30	55.0	2	6	270	0.00	29.950 
16:35	90.7	90.7	89.0	31	55.9	2	5	270	0.00	29.950 
16:40	91.2	91.2	89.6	31	56.3	1	4	270	0.00	29.950 
16:45	91.4	91.4	89.1	28	53.7	2	6	248	0.00	29.944 
16:50	91.4	91.4	88.9	27	52.7	4	11	248	0.00	29.944 
16:55	91.4	91.4	89.1	28	53.7	3	6	270	0.00	29.944 
17:00	91.2	91.2	88.9	28	53.5	2	5	270	0.00	29.945 
17:05	91.0	91.0	88.4	27	52.3	2	9	270	0.00	29.945 
17:10	90.3	90.3	87.8	28	52.7	3	8	270	0.00	29.945 
17:15	89.9	89.9	87.6	29	53.3	3	7	270	0.00	29.943 
17:20	89.9	89.9	87.8	30	54.3	2	5	248	0.00	29.943 
17:25	89.7	89.7	87.8	31	55.0	1	3	248	0.00	29.943 
17:30	89.5	89.5	87.6	31	54.8	1	3	248	0.00	29.934 
17:35	89.7	89.7	87.8	31	55.0	1	3	270	0.00	29.934 
17:40	89.9	89.9	88.0	31	55.2	1	4	270	0.00	29.934 
17:45	89.9	89.9	88.0	31	55.2	2	7	270	0.00	29.932 
17:50	89.7	89.7	87.8	31	55.0	1	3	270	0.00	29.932 
17:55	89.5	89.5	87.8	32	55.7	1	3	292	0.00	29.932 
18:00	89.3	89.3	87.3	31	54.7	2	5	292	0.00	29.933 
18:05	89.3	89.3	87.8	33	56.4	1	4	270	0.00	29.933 
18:10	89.3	89.3	87.8	33	56.4	2	4	270	0.00	29.933 
18:15	89.3	89.3	87.6	32	55.5	1	4	270	0.00	29.932 
18:20	89.5	89.5	87.8	32	55.7	2	5	248	0.00	29.932 
18:25	89.0	89.0	87.4	33	56.1	1	4	248	0.00	29.932 
18:30	88.8	88.8	87.2	33	55.9	1	4	270	0.00	29.932 
18:35	88.6	88.6	87.2	34	56.6	1	3	270	0.00	29.932 
18:40	88.4	88.4	87.2	35	57.2	1	3	270	0.00	29.932 
18:45	88.0	88.0	86.9	36	57.7	0	2	292	0.00	29.933 
18:50	87.6	87.6	86.7	37	58.1	0	3	292	0.00	29.933 
18:55	87.4	87.4	86.2	36	57.1	1	3	292	0.00	29.933 
19:00	87.2	87.2	86.2	37	57.7	1	3	292	0.00	29.931 
19:05	87.2	87.2	86.0	36	57.0	1	3	292	0.00	29.931 
19:10	87.2	87.2	86.0	36	57.0	1	5	270	0.00	29.931 
19:15	87.0	87.0	86.0	37	57.5	1	2	270	0.00	29.930 
19:20	86.7	86.7	85.8	38	58.0	0	1	270	0.00	29.930 
19:25	86.3	86.3	85.4	38	57.7	0	2	270	0.00	29.930 
19:30	85.9	85.9	85.1	39	58.0	0	2	270	0.00	29.927 
19:35	85.7	85.7	85.1	40	58.6	0	3	270	0.00	29.927 
19:40	85.3	85.3	84.7	40	58.2	0	1	22	0.00	29.927 
19:45	84.7	84.7	84.4	42	59.0	0	1	22	0.00	29.926 
19:50	84.1	84.1	83.7	42	58.5	0	1	22	0.00	29.926 
19:55	84.0	84.0	83.8	43	59.1	0	1	22	0.00	29.926 
20:00	83.8	83.8	83.6	43	58.9	0	1	22	0.00	29.927 
20:05	83.8	83.8	83.6	43	58.9	0	2	22	0.00	29.927 
20:10	83.6	83.6	83.5	44	59.3	0	3	248	0.00	29.927 
20:15	83.4	83.4	83.3	44	59.2	0	4	270	0.00	29.932 
20:20	83.4	83.4	83.3	44	59.2	0	2	292	0.00	29.932 
20:25	83.4	83.4	83.3	44	59.2	0	3	292	0.00	29.932 
20:30	83.2	83.2	83.1	44	59.0	0	1	292	0.00	29.934 
20:35	83.0	83.0	83.1	45	59.4	0	3	292	0.00	29.934 
20:40	82.8	82.8	82.9	45	59.3	0	1	292	0.00	29.934 
20:45	82.8	82.8	83.0	46	59.9	0	0	---	0.00	29.933 
20:50	82.6	82.6	82.8	46	59.7	0	1	292	0.00	29.933 
20:55	82.2	82.2	82.5	47	59.9	0	1	292	0.00	29.933 
21:00	82.0	82.0	82.3	47	59.8	0	1	292	0.00	29.934 
21:05	81.8	81.8	82.3	48	60.2	0	0	---	0.00	29.934 
21:10	81.6	81.6	82.1	48	60.0	0	1	292	0.00	29.934 
21:15	81.4	81.4	81.9	48	59.8	0	2	248	0.00	29.932 
21:20	81.2	81.2	81.7	48	59.6	0	1	270	0.00	29.932 
21:25	81.2	81.2	81.7	48	59.6	0	4	248	0.00	29.932 
21:30	81.2	81.2	81.8	49	60.2	0	4	248	0.00	29.936 
21:35	81.2	81.2	81.7	48	59.6	0	3	225	0.00	29.936 
21:40	81.2	81.2	81.8	49	60.2	0	2	225	0.00	29.936 
21:45	81.1	81.1	81.7	49	60.1	0	1	225	0.00	29.934 
21:50	81.1	81.1	81.7	49	60.1	0	1	225	0.00	29.934 
21:55	80.9	80.9	81.6	50	60.5	0	1	225	0.00	29.934 
22:00	80.5	80.5	81.3	50	60.1	0	1	225	0.00	29.934 
22:05	80.5	80.5	81.3	50	60.1	0	3	225	0.00	29.934 
22:10	80.3	80.3	81.1	50	59.9	0	1	225	0.00	29.934 
22:15	80.3	80.3	81.1	50	59.9	0	1	202	0.00	29.928 
22:20	80.3	80.3	81.1	50	59.9	0	3	292	0.00	29.928 
22:25	80.3	80.3	81.1	50	59.9	0	2	292	0.00	29.928 
22:30	80.5	80.5	81.3	50	60.1	0	2	292	0.00	29.927 
22:35	80.5	80.5	81.3	50	60.1	0	2	248	0.00	29.927 
22:40	80.5	80.5	81.3	50	60.1	0	3	225	0.00	29.927 
22:45	80.5	80.5	81.3	50	60.1	0	4	270	0.00	29.926 
22:50	80.7	80.7	81.4	50	60.3	0	2	248	0.00	29.926 
22:55	80.7	80.7	81.3	49	59.7	1	3	248	0.00	29.926 
23:00	80.9	80.9	81.6	50	60.5	0	2	248	0.00	29.926 
23:05	80.7	80.7	81.4	50	60.3	0	3	68	0.00	29.926 
23:10	80.7	80.7	81.4	50	60.3	1	5	248	0.00	29.926 
23:15	80.5	80.5	81.3	50	60.1	0	2	248	0.00	29.921 
23:20	80.5	80.5	81.3	50	60.1	0	2	248	0.00	29.921 
23:25	80.5	80.5	81.3	50	60.1	1	4	248	0.00	29.921 
23:30	80.3	80.3	81.1	50	59.9	0	3	248	0.00	29.921 
23:35	80.3	80.3	81.2	51	60.5	0	4	248	0.00	29.921 
23:40	80.3	80.3	81.1	50	59.9	1	4	270	0.00	29.921 
23:45	80.5	80.5	81.3	50	60.1	1	4	270	0.00	29.921 
23:50	80.3	80.3	81.1	50	59.9	1	3	270	0.00	29.921 
23:55	80.3	80.3	81.1	50	59.9	1	3	248	0.00	29.921 

CoCoRaHS
IN-AL-39
A2 Web Hosting
Creative Commons License
GoDaddy
search engine by freefind advanced

loaded 2018-11-16 11:47:28 • last modified 2010-11-18 10:43:29
Privacy PolicyDisclaimer
• wx.awcolley.com is powered by PmWiki v.2002016 •
• all content (unless otherwise noted) © 2018 A W Colley